Terminal Aerodrome Forecast
Issued by NWS Upton, NY

Home | Current Version | Previous Version | Text Only | Print | Product List | Glossary On
Versions: 1 2 3 4 5 6 7 8 9 10 11 12 13 14 15 16 17 18 19 20 21 22 23 24 25 26 27 28 29 30 31
000
FTUS41 KOKX 301936 AAA
TAFJFK
TAF AMD
KJFK 301936Z 3020/0124 16015G22KT P6SM SCT050 BKN120
     FM010000 15010KT P6SM SCT010 BKN050 BKN100
     FM010400 14007KT 6SM BR VCSH FEW006 BKN010
      TEMPO 0108/0112 SHRA
     FM011200 22006KT 6SM -SHRA BR BKN012 BKN025
     FM011500 20010KT P6SM SCT025 BKN040
     FM011800 19015KT P6SM BKN050=

USA.gov is the U.S. government's official web portal to all federal, state and local government web resources and services.